sensor_id;sensor_type;location;lat;lon;timestamp;temperature;humidity
64012;DHT22;50211;52.768;12.124;2023-07-31T00:01:55;14.90;99.90
64012;DHT22;50211;52.768;12.124;2023-07-31T00:04:20;14.90;99.90
64012;DHT22;50211;52.768;12.124;2023-07-31T00:06:46;14.90;99.90
64012;DHT22;50211;52.768;12.124;2023-07-31T00:09:11;14.90;99.90
64012;DHT22;50211;52.768;12.124;2023-07-31T00:11:37;14.90;99.90
64012;DHT22;50211;52.768;12.124;2023-07-31T00:14:02;15.00;99.90
64012;DHT22;50211;52.768;12.124;2023-07-31T00:16:28;15.00;99.90
64012;DHT22;50211;52.768;12.124;2023-07-31T00:18:53;15.00;99.90
64012;DHT22;50211;52.768;12.124;2023-07-31T00:21:19;15.00;99.90
64012;DHT22;50211;52.768;12.124;2023-07-31T00:23:44;15.00;99.90
64012;DHT22;50211;52.768;12.124;2023-07-31T00:26:10;15.00;99.90
64012;DHT22;50211;52.768;12.124;2023-07-31T00:28:35;15.00;99.90
64012;DHT22;50211;52.768;12.124;2023-07-31T00:31:01;15.00;99.90
64012;DHT22;50211;52.768;12.124;2023-07-31T00:33:28;15.00;99.90
64012;DHT22;50211;52.768;12.124;2023-07-31T00:35:53;15.00;99.90
64012;DHT22;50211;52.768;12.124;2023-07-31T00:38:18;15.00;99.90
64012;DHT22;50211;52.768;12.124;2023-07-31T00:40:44;15.00;99.90
64012;DHT22;50211;52.768;12.124;2023-07-31T00:43:09;15.00;99.90
64012;DHT22;50211;52.768;12.124;2023-07-31T00:45:35;15.00;99.90
64012;DHT22;50211;52.768;12.124;2023-07-31T00:48:01;15.00;99.90
64012;DHT22;50211;52.768;12.124;2023-07-31T00:50:28;15.00;99.90
64012;DHT22;50211;52.768;12.124;2023-07-31T00:52:54;15.00;99.90
64012;DHT22;50211;52.768;12.124;2023-07-31T00:55:19;15.00;99.90
64012;DHT22;50211;52.768;12.124;2023-07-31T00:57:48;15.00;99.90
64012;DHT22;50211;52.768;12.124;2023-07-31T01:00:14;15.00;99.90
64012;DHT22;50211;52.768;12.124;2023-07-31T01:02:39;14.90;99.90
64012;DHT22;50211;52.768;12.124;2023-07-31T01:05:05;14.90;99.90
64012;DHT22;50211;52.768;12.124;2023-07-31T01:07:45;14.90;99.90
64012;DHT22;50211;52.768;12.124;2023-07-31T01:10:20;14.80;99.90
64012;DHT22;50211;52.768;12.124;2023-07-31T01:12:48;14.80;99.90
64012;DHT22;50211;52.768;12.124;2023-07-31T01:15:13;14.80;99.90
64012;DHT22;50211;52.768;12.124;2023-07-31T01:17:41;14.80;99.90
64012;DHT22;50211;52.768;12.124;2023-07-31T01:20:22;14.80;99.90
64012;DHT22;50211;52.768;12.124;2023-07-31T01:23:30;14.80;99.90
64012;DHT22;50211;52.768;12.124;2023-07-31T01:26:23;14.70;99.90
64012;DHT22;50211;52.768;12.124;2023-07-31T01:29:00;14.80;99.90
64012;DHT22;50211;52.768;12.124;2023-07-31T01:31:29;14.80;99.90
64012;DHT22;50211;52.768;12.124;2023-07-31T01:33:57;14.80;99.90
64012;DHT22;50211;52.768;12.124;2023-07-31T01:36:25;14.90;99.90
64012;DHT22;50211;52.768;12.124;2023-07-31T01:38:51;14.90;99.90
64012;DHT22;50211;52.768;12.124;2023-07-31T01:41:17;15.00;99.90
64012;DHT22;50211;52.768;12.124;2023-07-31T01:43:44;14.90;99.90
64012;DHT22;50211;52.768;12.124;2023-07-31T01:46:09;14.90;99.90
64012;DHT22;50211;52.768;12.124;2023-07-31T01:48:34;14.90;99.90
64012;DHT22;50211;52.768;12.124;2023-07-31T01:51:02;14.90;99.90
64012;DHT22;50211;52.768;12.124;2023-07-31T01:53:28;14.90;99.90
64012;DHT22;50211;52.768;12.124;2023-07-31T01:55:54;14.80;99.90
64012;DHT22;50211;52.768;12.124;2023-07-31T01:58:19;14.80;99.90
64012;DHT22;50211;52.768;12.124;2023-07-31T02:00:45;14.80;99.90
64012;DHT22;50211;52.768;12.124;2023-07-31T02:03:11;14.80;99.90
64012;DHT22;50211;52.768;12.124;2023-07-31T02:05:46;14.80;99.90
64012;DHT22;50211;52.768;12.124;2023-07-31T02:08:12;14.80;99.90
64012;DHT22;50211;52.768;12.124;2023-07-31T02:10:38;14.80;99.90
64012;DHT22;50211;52.768;12.124;2023-07-31T02:13:03;14.80;99.90
64012;DHT22;50211;52.768;12.124;2023-07-31T02:15:30;14.80;99.90
64012;DHT22;50211;52.768;12.124;2023-07-31T02:17:55;14.70;99.90
64012;DHT22;50211;52.768;12.124;2023-07-31T02:20:21;14.70;99.90
64012;DHT22;50211;52.768;12.124;2023-07-31T02:22:46;14.70;99.90
64012;DHT22;50211;52.768;12.124;2023-07-31T02:25:12;14.70;99.90
64012;DHT22;50211;52.768;12.124;2023-07-31T02:27:37;14.70;99.90
64012;DHT22;50211;52.768;12.124;2023-07-31T02:30:03;14.70;99.90
64012;DHT22;50211;52.768;12.124;2023-07-31T02:32:29;14.80;99.90
64012;DHT22;50211;52.768;12.124;2023-07-31T02:34:54;14.80;99.90
64012;DHT22;50211;52.768;12.124;2023-07-31T02:37:20;14.80;99.90
64012;DHT22;50211;52.768;12.124;2023-07-31T02:39:45;14.80;99.90
64012;DHT22;50211;52.768;12.124;2023-07-31T02:42:11;14.90;99.90
64012;DHT22;50211;52.768;12.124;2023-07-31T02:44:36;15.00;99.90
64012;DHT22;50211;52.768;12.124;2023-07-31T02:47:02;14.90;99.90
64012;DHT22;50211;52.768;12.124;2023-07-31T02:49:28;15.00;99.90
64012;DHT22;50211;52.768;12.124;2023-07-31T02:51:54;15.00;99.90
64012;DHT22;50211;52.768;12.124;2023-07-31T02:54:19;15.10;99.90
64012;DHT22;50211;52.768;12.124;2023-07-31T02:56:47;15.10;99.90
64012;DHT22;50211;52.768;12.124;2023-07-31T02:59:12;15.10;99.90
64012;DHT22;50211;52.768;12.124;2023-07-31T03:01:38;15.20;99.90
64012;DHT22;50211;52.768;12.124;2023-07-31T03:04:03;15.10;99.90
64012;DHT22;50211;52.768;12.124;2023-07-31T03:06:29;15.10;99.90
64012;DHT22;50211;52.768;12.124;2023-07-31T03:08:55;15.10;99.90
64012;DHT22;50211;52.768;12.124;2023-07-31T03:11:20;15.10;99.90
64012;DHT22;50211;52.768;12.124;2023-07-31T03:13:46;15.10;99.90
64012;DHT22;50211;52.768;12.124;2023-07-31T03:16:11;15.10;99.90
64012;DHT22;50211;52.768;12.124;2023-07-31T03:18:37;15.10;99.90
64012;DHT22;50211;52.768;12.124;2023-07-31T03:21:02;15.10;99.90
64012;DHT22;50211;52.768;12.124;2023-07-31T03:23:28;15.00;99.90
64012;DHT22;50211;52.768;12.124;2023-07-31T03:26:02;15.00;99.90
64012;DHT22;50211;52.768;12.124;2023-07-31T03:28:29;15.00;99.90
64012;DHT22;50211;52.768;12.124;2023-07-31T03:30:54;14.90;99.90
64012;DHT22;50211;52.768;12.124;2023-07-31T03:33:20;14.90;99.90
64012;DHT22;50211;52.768;12.124;2023-07-31T03:35:46;14.90;99.90
64012;DHT22;50211;52.768;12.124;2023-07-31T03:38:11;14.90;99.90
64012;DHT22;50211;52.768;12.124;2023-07-31T03:40:37;14.80;99.90
64012;DHT22;50211;52.768;12.124;2023-07-31T03:43:02;14.80;99.90
64012;DHT22;50211;52.768;12.124;2023-07-31T03:45:28;14.80;99.90
64012;DHT22;50211;52.768;12.124;2023-07-31T03:47:53;14.80;99.90
64012;DHT22;50211;52.768;12.124;2023-07-31T03:50:20;14.80;99.90
64012;DHT22;50211;52.768;12.124;2023-07-31T03:52:45;14.90;99.90
64012;DHT22;50211;52.768;12.124;2023-07-31T03:55:11;14.90;99.90
64012;DHT22;50211;52.768;12.124;2023-07-31T03:57:37;14.90;99.90
64012;DHT22;50211;52.768;12.124;2023-07-31T04:00:02;14.90;99.90
64012;DHT22;50211;52.768;12.124;2023-07-31T04:02:28;14.90;99.90
64012;DHT22;50211;52.768;12.124;2023-07-31T04:04:54;14.90;99.90
64012;DHT22;50211;52.768;12.124;2023-07-31T04:07:19;14.90;99.90
64012;DHT22;50211;52.768;12.124;2023-07-31T04:09:45;14.90;99.90
64012;DHT22;50211;52.768;12.124;2023-07-31T04:12:10;14.90;99.90
64012;DHT22;50211;52.768;12.124;2023-07-31T04:14:36;15.00;99.90
64012;DHT22;50211;52.768;12.124;2023-07-31T04:17:02;15.00;99.90
64012;DHT22;50211;52.768;12.124;2023-07-31T04:19:27;15.00;99.90
64012;DHT22;50211;52.768;12.124;2023-07-31T04:21:53;15.00;99.90
64012;DHT22;50211;52.768;12.124;2023-07-31T04:24:18;15.10;99.90
64012;DHT22;50211;52.768;12.124;2023-07-31T04:26:50;15.10;99.90
64012;DHT22;50211;52.768;12.124;2023-07-31T04:29:15;15.10;99.90
64012;DHT22;50211;52.768;12.124;2023-07-31T04:31:41;15.10;99.90
64012;DHT22;50211;52.768;12.124;2023-07-31T04:34:06;15.10;99.90
64012;DHT22;50211;52.768;12.124;2023-07-31T04:36:34;15.10;99.90
64012;DHT22;50211;52.768;12.124;2023-07-31T04:39:00;15.10;99.90
64012;DHT22;50211;52.768;12.124;2023-07-31T04:41:27;15.10;99.90
64012;DHT22;50211;52.768;12.124;2023-07-31T04:43:53;15.10;99.90
64012;DHT22;50211;52.768;12.124;2023-07-31T04:46:18;15.10;99.90
64012;DHT22;50211;52.768;12.124;2023-07-31T04:48:44;15.10;99.90
64012;DHT22;50211;52.768;12.124;2023-07-31T04:51:09;15.10;99.90
64012;DHT22;50211;52.768;12.124;2023-07-31T04:53:35;15.10;99.90
64012;DHT22;50211;52.768;12.124;2023-07-31T04:56:01;15.10;99.90
64012;DHT22;50211;52.768;12.124;2023-07-31T04:58:27;15.10;99.90
64012;DHT22;50211;52.768;12.124;2023-07-31T05:00:52;15.20;99.90
64012;DHT22;50211;52.768;12.124;2023-07-31T05:03:17;15.20;99.90
64012;DHT22;50211;52.768;12.124;2023-07-31T05:05:43;15.20;99.90
64012;DHT22;50211;52.768;12.124;2023-07-31T05:08:08;15.10;99.90
64012;DHT22;50211;52.768;12.124;2023-07-31T05:10:34;15.10;99.90
64012;DHT22;50211;52.768;12.124;2023-07-31T05:13:00;15.10;99.90
64012;DHT22;50211;52.768;12.124;2023-07-31T05:15:25;15.20;99.90
64012;DHT22;50211;52.768;12.124;2023-07-31T05:17:51;15.20;99.90
64012;DHT22;50211;52.768;12.124;2023-07-31T05:20:16;15.20;99.90
64012;DHT22;50211;52.768;12.124;2023-07-31T05:22:42;15.30;99.90
64012;DHT22;50211;52.768;12.124;2023-07-31T05:25:07;15.30;99.90
64012;DHT22;50211;52.768;12.124;2023-07-31T05:27:33;15.30;99.90
64012;DHT22;50211;52.768;12.124;2023-07-31T05:29:59;15.30;99.90
64012;DHT22;50211;52.768;12.124;2023-07-31T05:32:24;15.30;99.90
64012;DHT22;50211;52.768;12.124;2023-07-31T05:34:53;15.20;99.90
64012;DHT22;50211;52.768;12.124;2023-07-31T05:37:19;15.30;99.90
64012;DHT22;50211;52.768;12.124;2023-07-31T05:39:45;15.20;99.90
64012;DHT22;50211;52.768;12.124;2023-07-31T05:42:10;15.20;99.90
64012;DHT22;50211;52.768;12.124;2023-07-31T05:44:36;15.20;99.90
64012;DHT22;50211;52.768;12.124;2023-07-31T05:47:01;15.30;99.90
64012;DHT22;50211;52.768;12.124;2023-07-31T05:49:27;15.30;99.90
64012;DHT22;50211;52.768;12.124;2023-07-31T05:51:52;15.30;99.90
64012;DHT22;50211;52.768;12.124;2023-07-31T05:54:18;15.30;99.90
64012;DHT22;50211;52.768;12.124;2023-07-31T05:56:43;15.30;99.90
64012;DHT22;50211;52.768;12.124;2023-07-31T05:59:11;15.40;99.90
64012;DHT22;50211;52.768;12.124;2023-07-31T06:01:37;15.40;99.90
64012;DHT22;50211;52.768;12.124;2023-07-31T06:04:03;15.50;99.90
64012;DHT22;50211;52.768;12.124;2023-07-31T06:06:29;15.50;99.90
64012;DHT22;50211;52.768;12.124;2023-07-31T06:08:54;15.60;99.90
64012;DHT22;50211;52.768;12.124;2023-07-31T06:11:20;15.70;99.90
64012;DHT22;50211;52.768;12.124;2023-07-31T06:13:46;15.70;99.90
64012;DHT22;50211;52.768;12.124;2023-07-31T06:16:13;15.70;99.90
64012;DHT22;50211;52.768;12.124;2023-07-31T06:18:39;15.80;99.90
64012;DHT22;50211;52.768;12.124;2023-07-31T06:21:04;15.90;99.90
64012;DHT22;50211;52.768;12.124;2023-07-31T06:23:30;16.00;99.90
64012;DHT22;50211;52.768;12.124;2023-07-31T06:25:55;16.00;99.90
64012;DHT22;50211;52.768;12.124;2023-07-31T06:28:21;16.10;99.90
64012;DHT22;50211;52.768;12.124;2023-07-31T06:30:46;16.10;99.90
64012;DHT22;50211;52.768;12.124;2023-07-31T06:33:12;16.20;99.90
64012;DHT22;50211;52.768;12.124;2023-07-31T06:35:38;16.30;99.90
64012;DHT22;50211;52.768;12.124;2023-07-31T06:38:03;16.30;99.90
64012;DHT22;50211;52.768;12.124;2023-07-31T06:40:29;16.50;99.90
64012;DHT22;50211;52.768;12.124;2023-07-31T06:42:55;16.60;99.90
64012;DHT22;50211;52.768;12.124;2023-07-31T06:45:20;16.70;99.90
64012;DHT22;50211;52.768;12.124;2023-07-31T06:47:47;16.80;99.90
64012;DHT22;50211;52.768;12.124;2023-07-31T06:50:12;16.80;99.90
64012;DHT22;50211;52.768;12.124;2023-07-31T06:52:38;16.80;99.90
64012;DHT22;50211;52.768;12.124;2023-07-31T06:55:16;16.90;99.90
64012;DHT22;50211;52.768;12.124;2023-07-31T06:57:46;17.00;99.90
64012;DHT22;50211;52.768;12.124;2023-07-31T07:00:12;17.00;99.90
64012;DHT22;50211;52.768;12.124;2023-07-31T07:02:38;17.00;99.90
64012;DHT22;50211;52.768;12.124;2023-07-31T07:05:03;17.00;99.90
64012;DHT22;50211;52.768;12.124;2023-07-31T07:07:29;17.00;99.90
64012;DHT22;50211;52.768;12.124;2023-07-31T07:09:54;17.00;99.90
64012;DHT22;50211;52.768;12.124;2023-07-31T07:12:20;17.00;99.90
64012;DHT22;50211;52.768;12.124;2023-07-31T07:14:45;16.90;99.90
64012;DHT22;50211;52.768;12.124;2023-07-31T07:17:14;16.90;99.90
64012;DHT22;50211;52.768;12.124;2023-07-31T07:19:40;17.10;99.90
64012;DHT22;50211;52.768;12.124;2023-07-31T07:22:07;17.00;99.90
64012;DHT22;50211;52.768;12.124;2023-07-31T07:24:32;17.10;99.90
64012;DHT22;50211;52.768;12.124;2023-07-31T07:26:58;17.20;99.90
64012;DHT22;50211;52.768;12.124;2023-07-31T07:29:23;17.30;99.90
64012;DHT22;50211;52.768;12.124;2023-07-31T07:31:49;17.30;99.90
64012;DHT22;50211;52.768;12.124;2023-07-31T07:34:14;17.30;99.90
64012;DHT22;50211;52.768;12.124;2023-07-31T07:36:40;17.20;99.90
64012;DHT22;50211;52.768;12.124;2023-07-31T07:39:05;17.20;99.90
64012;DHT22;50211;52.768;12.124;2023-07-31T07:41:31;17.20;99.90
64012;DHT22;50211;52.768;12.124;2023-07-31T07:43:56;17.30;99.90
64012;DHT22;50211;52.768;12.124;2023-07-31T07:46:22;17.40;99.90
64012;DHT22;50211;52.768;12.124;2023-07-31T07:48:48;17.60;99.90
64012;DHT22;50211;52.768;12.124;2023-07-31T07:51:14;17.70;99.90
64012;DHT22;50211;52.768;12.124;2023-07-31T07:53:39;17.80;99.90
64012;DHT22;50211;52.768;12.124;2023-07-31T07:56:04;17.80;99.90
64012;DHT22;50211;52.768;12.124;2023-07-31T07:58:30;17.90;99.90
64012;DHT22;50211;52.768;12.124;2023-07-31T08:00:55;17.90;99.90
64012;DHT22;50211;52.768;12.124;2023-07-31T08:03:21;17.80;99.90
64012;DHT22;50211;52.768;12.124;2023-07-31T08:05:46;17.70;99.90
64012;DHT22;50211;52.768;12.124;2023-07-31T08:08:15;17.70;99.90
64012;DHT22;50211;52.768;12.124;2023-07-31T08:10:44;17.40;99.90
64012;DHT22;50211;52.768;12.124;2023-07-31T08:13:11;17.60;99.90
64012;DHT22;50211;52.768;12.124;2023-07-31T08:15:37;17.50;99.90
64012;DHT22;50211;52.768;12.124;2023-07-31T08:18:02;17.40;99.90
64012;DHT22;50211;52.768;12.124;2023-07-31T08:20:28;17.40;99.90
64012;DHT22;50211;52.768;12.124;2023-07-31T08:22:53;17.40;99.90
64012;DHT22;50211;52.768;12.124;2023-07-31T08:25:19;17.30;99.90
64012;DHT22;50211;52.768;12.124;2023-07-31T08:27:44;17.10;99.90
64012;DHT22;50211;52.768;12.124;2023-07-31T08:30:11;16.90;99.90
64012;DHT22;50211;52.768;12.124;2023-07-31T08:32:37;16.60;99.90
64012;DHT22;50211;52.768;12.124;2023-07-31T08:35:03;16.50;99.90
64012;DHT22;50211;52.768;12.124;2023-07-31T08:37:28;16.30;99.90
64012;DHT22;50211;52.768;12.124;2023-07-31T08:39:54;16.30;99.90
64012;DHT22;50211;52.768;12.124;2023-07-31T08:42:20;16.30;99.90
64012;DHT22;50211;52.768;12.124;2023-07-31T08:44:46;16.20;99.90
64012;DHT22;50211;52.768;12.124;2023-07-31T08:47:12;16.20;99.90
64012;DHT22;50211;52.768;12.124;2023-07-31T08:49:38;16.20;99.90
64012;DHT22;50211;52.768;12.124;2023-07-31T08:52:06;16.20;99.90
64012;DHT22;50211;52.768;12.124;2023-07-31T08:54:31;16.20;99.90
64012;DHT22;50211;52.768;12.124;2023-07-31T08:56:58;16.20;99.90
64012;DHT22;50211;52.768;12.124;2023-07-31T08:59:27;16.30;99.90
64012;DHT22;50211;52.768;12.124;2023-07-31T09:01:55;16.30;99.90
64012;DHT22;50211;52.768;12.124;2023-07-31T09:04:23;16.40;99.90
64012;DHT22;50211;52.768;12.124;2023-07-31T09:06:49;16.50;99.90
64012;DHT22;50211;52.768;12.124;2023-07-31T09:09:15;16.50;99.90
64012;DHT22;50211;52.768;12.124;2023-07-31T09:11:41;16.50;99.90
64012;DHT22;50211;52.768;12.124;2023-07-31T09:14:08;16.50;99.90
64012;DHT22;50211;52.768;12.124;2023-07-31T09:16:35;16.30;99.90
64012;DHT22;50211;52.768;12.124;2023-07-31T09:19:01;16.30;99.90
64012;DHT22;50211;52.768;12.124;2023-07-31T09:21:30;16.10;99.90
64012;DHT22;50211;52.768;12.124;2023-07-31T09:23:56;16.00;99.90
64012;DHT22;50211;52.768;12.124;2023-07-31T09:26:47;16.00;99.90
64012;DHT22;50211;52.768;12.124;2023-07-31T09:29:19;16.00;99.90
64012;DHT22;50211;52.768;12.124;2023-07-31T09:31:45;16.00;99.90
64012;DHT22;50211;52.768;12.124;2023-07-31T09:34:11;16.10;99.90
64012;DHT22;50211;52.768;12.124;2023-07-31T09:36:41;16.10;99.90
64012;DHT22;50211;52.768;12.124;2023-07-31T09:39:09;16.10;99.90
64012;DHT22;50211;52.768;12.124;2023-07-31T09:41:39;16.10;99.90
64012;DHT22;50211;52.768;12.124;2023-07-31T09:44:05;16.10;99.90
64012;DHT22;50211;52.768;12.124;2023-07-31T09:46:31;16.10;99.90
64012;DHT22;50211;52.768;12.124;2023-07-31T09:49:10;16.20;99.90
64012;DHT22;50211;52.768;12.124;2023-07-31T09:51:40;16.20;99.90
64012;DHT22;50211;52.768;12.124;2023-07-31T09:56:38;16.30;99.90
64012;DHT22;50211;52.768;12.124;2023-07-31T09:59:05;16.40;99.90
64012;DHT22;50211;52.768;12.124;2023-07-31T10:01:31;16.50;99.90
64012;DHT22;50211;52.768;12.124;2023-07-31T10:03:58;16.60;99.90
64012;DHT22;50211;52.768;12.124;2023-07-31T10:06:24;16.60;99.90
64012;DHT22;50211;52.768;12.124;2023-07-31T10:08:51;16.70;99.90
64012;DHT22;50211;52.768;12.124;2023-07-31T10:11:18;16.80;99.90
64012;DHT22;50211;52.768;12.124;2023-07-31T10:13:44;17.00;99.90
64012;DHT22;50211;52.768;12.124;2023-07-31T10:16:10;17.10;99.90
64012;DHT22;50211;52.768;12.124;2023-07-31T10:18:37;17.30;99.90
64012;DHT22;50211;52.768;12.124;2023-07-31T10:21:04;17.50;99.90
64012;DHT22;50211;52.768;12.124;2023-07-31T10:23:30;17.80;99.90
64012;DHT22;50211;52.768;12.124;2023-07-31T10:25:57;18.00;99.90
64012;DHT22;50211;52.768;12.124;2023-07-31T10:28:24;18.50;99.90
64012;DHT22;50211;52.768;12.124;2023-07-31T10:30:51;18.70;99.90
64012;DHT22;50211;52.768;12.124;2023-07-31T10:33:18;18.80;99.90
64012;DHT22;50211;52.768;12.124;2023-07-31T10:35:47;18.90;99.90
64012;DHT22;50211;52.768;12.124;2023-07-31T10:38:13;18.90;99.90
64012;DHT22;50211;52.768;12.124;2023-07-31T10:40:38;18.70;99.90
64012;DHT22;50211;52.768;12.124;2023-07-31T10:43:05;18.70;99.90
64012;DHT22;50211;52.768;12.124;2023-07-31T10:45:36;18.50;99.90
64012;DHT22;50211;52.768;12.124;2023-07-31T10:48:04;18.50;99.90
64012;DHT22;50211;52.768;12.124;2023-07-31T10:50:31;18.60;99.90
64012;DHT22;50211;52.768;12.124;2023-07-31T10:53:00;18.60;99.90
64012;DHT22;50211;52.768;12.124;2023-07-31T10:55:42;18.70;99.90
64012;DHT22;50211;52.768;12.124;2023-07-31T10:58:09;19.10;99.90
64012;DHT22;50211;52.768;12.124;2023-07-31T11:00:43;19.30;99.90
64012;DHT22;50211;52.768;12.124;2023-07-31T11:03:19;19.50;99.90
64012;DHT22;50211;52.768;12.124;2023-07-31T11:06:00;19.80;99.90
64012;DHT22;50211;52.768;12.124;2023-07-31T11:08:28;20.20;99.90
64012;DHT22;50211;52.768;12.124;2023-07-31T11:11:04;20.20;99.90
64012;DHT22;50211;52.768;12.124;2023-07-31T11:13:47;19.90;99.90
64012;DHT22;50211;52.768;12.124;2023-07-31T11:16:15;19.60;99.90
64012;DHT22;50211;52.768;12.124;2023-07-31T11:18:43;19.50;99.90
64012;DHT22;50211;52.768;12.124;2023-07-31T11:21:12;19.50;99.90
64012;DHT22;50211;52.768;12.124;2023-07-31T11:23:38;19.30;99.90
64012;DHT22;50211;52.768;12.124;2023-07-31T11:26:06;19.30;99.90
64012;DHT22;50211;52.768;12.124;2023-07-31T11:28:33;19.30;99.90
64012;DHT22;50211;52.768;12.124;2023-07-31T11:30:59;19.40;99.90
64012;DHT22;50211;52.768;12.124;2023-07-31T11:33:25;19.40;99.90
64012;DHT22;50211;52.768;12.124;2023-07-31T11:35:50;19.30;99.90
64012;DHT22;50211;52.768;12.124;2023-07-31T11:38:22;19.20;99.90
64012;DHT22;50211;52.768;12.124;2023-07-31T11:40:53;19.10;99.90
64012;DHT22;50211;52.768;12.124;2023-07-31T11:43:19;18.70;99.90
64012;DHT22;50211;52.768;12.124;2023-07-31T11:45:54;18.60;99.90
64012;DHT22;50211;52.768;12.124;2023-07-31T11:48:27;18.50;99.90
64012;DHT22;50211;52.768;12.124;2023-07-31T11:50:57;18.50;99.90
64012;DHT22;50211;52.768;12.124;2023-07-31T11:53:41;18.50;99.90
64012;DHT22;50211;52.768;12.124;2023-07-31T11:56:09;18.50;99.90
64012;DHT22;50211;52.768;12.124;2023-07-31T11:58:36;18.50;99.90
64012;DHT22;50211;52.768;12.124;2023-07-31T12:01:04;18.50;99.90
64012;DHT22;50211;52.768;12.124;2023-07-31T12:03:30;18.40;99.90
64012;DHT22;50211;52.768;12.124;2023-07-31T12:05:56;18.30;99.90
64012;DHT22;50211;52.768;12.124;2023-07-31T12:08:23;18.20;99.90
64012;DHT22;50211;52.768;12.124;2023-07-31T12:10:53;18.10;99.90
64012;DHT22;50211;52.768;12.124;2023-07-31T12:13:24;18.10;99.90
64012;DHT22;50211;52.768;12.124;2023-07-31T12:15:56;18.10;99.90
64012;DHT22;50211;52.768;12.124;2023-07-31T12:18:23;18.20;99.90
64012;DHT22;50211;52.768;12.124;2023-07-31T12:20:55;18.40;99.90
64012;DHT22;50211;52.768;12.124;2023-07-31T12:23:23;18.60;99.90
64012;DHT22;50211;52.768;12.124;2023-07-31T12:26:11;18.90;99.90
64012;DHT22;50211;52.768;12.124;2023-07-31T12:28:38;19.20;99.90
64012;DHT22;50211;52.768;12.124;2023-07-31T12:31:04;19.60;99.90
64012;DHT22;50211;52.768;12.124;2023-07-31T12:33:34;20.00;99.90
64012;DHT22;50211;52.768;12.124;2023-07-31T12:36:04;20.30;99.90
64012;DHT22;50211;52.768;12.124;2023-07-31T12:38:31;20.50;99.90
64012;DHT22;50211;52.768;12.124;2023-07-31T12:40:57;20.40;99.90
64012;DHT22;50211;52.768;12.124;2023-07-31T12:43:22;20.20;99.90
64012;DHT22;50211;52.768;12.124;2023-07-31T12:45:48;20.00;99.90
64012;DHT22;50211;52.768;12.124;2023-07-31T12:48:14;20.00;99.90
64012;DHT22;50211;52.768;12.124;2023-07-31T12:50:39;20.10;99.90
64012;DHT22;50211;52.768;12.124;2023-07-31T12:53:05;20.00;99.90
64012;DHT22;50211;52.768;12.124;2023-07-31T12:55:32;19.90;99.90
64012;DHT22;50211;52.768;12.124;2023-07-31T12:58:00;19.80;99.90
64012;DHT22;50211;52.768;12.124;2023-07-31T13:00:25;19.60;99.90
64012;DHT22;50211;52.768;12.124;2023-07-31T13:02:51;19.50;99.90
64012;DHT22;50211;52.768;12.124;2023-07-31T13:05:17;19.60;99.90
64012;DHT22;50211;52.768;12.124;2023-07-31T13:07:45;19.60;99.90
64012;DHT22;50211;52.768;12.124;2023-07-31T13:10:10;19.60;99.90
64012;DHT22;50211;52.768;12.124;2023-07-31T13:12:36;19.70;99.90
64012;DHT22;50211;52.768;12.124;2023-07-31T13:15:01;19.60;99.90
64012;DHT22;50211;52.768;12.124;2023-07-31T13:17:27;19.70;99.90
64012;DHT22;50211;52.768;12.124;2023-07-31T13:19:52;19.60;99.90
64012;DHT22;50211;52.768;12.124;2023-07-31T13:22:18;19.50;99.90
64012;DHT22;50211;52.768;12.124;2023-07-31T13:24:43;19.40;99.90
64012;DHT22;50211;52.768;12.124;2023-07-31T13:27:09;19.30;99.90
64012;DHT22;50211;52.768;12.124;2023-07-31T13:29:34;19.30;99.90
64012;DHT22;50211;52.768;12.124;2023-07-31T13:32:00;19.20;99.90
64012;DHT22;50211;52.768;12.124;2023-07-31T13:34:26;19.30;99.90
64012;DHT22;50211;52.768;12.124;2023-07-31T13:36:51;19.20;99.90
64012;DHT22;50211;52.768;12.124;2023-07-31T13:39:16;19.20;99.90
64012;DHT22;50211;52.768;12.124;2023-07-31T13:41:42;19.20;99.90
64012;DHT22;50211;52.768;12.124;2023-07-31T13:44:07;19.30;99.90
64012;DHT22;50211;52.768;12.124;2023-07-31T13:46:33;19.20;99.90
64012;DHT22;50211;52.768;12.124;2023-07-31T13:48:59;19.30;99.90
64012;DHT22;50211;52.768;12.124;2023-07-31T13:51:25;19.30;99.90
64012;DHT22;50211;52.768;12.124;2023-07-31T13:53:51;19.30;99.90
64012;DHT22;50211;52.768;12.124;2023-07-31T13:56:16;19.30;99.90
64012;DHT22;50211;52.768;12.124;2023-07-31T13:58:42;19.30;99.90
64012;DHT22;50211;52.768;12.124;2023-07-31T14:01:07;19.40;99.90
64012;DHT22;50211;52.768;12.124;2023-07-31T14:03:33;19.40;99.90
64012;DHT22;50211;52.768;12.124;2023-07-31T14:05:58;19.40;99.90
64012;DHT22;50211;52.768;12.124;2023-07-31T14:08:24;19.40;99.90
64012;DHT22;50211;52.768;12.124;2023-07-31T14:10:49;19.50;99.90
64012;DHT22;50211;52.768;12.124;2023-07-31T14:13:15;19.60;99.90
64012;DHT22;50211;52.768;12.124;2023-07-31T14:15:44;19.50;99.90
64012;DHT22;50211;52.768;12.124;2023-07-31T14:18:09;19.50;99.90
64012;DHT22;50211;52.768;12.124;2023-07-31T14:20:35;19.50;99.90
64012;DHT22;50211;52.768;12.124;2023-07-31T14:23:02;19.40;99.90
64012;DHT22;50211;52.768;12.124;2023-07-31T14:25:28;19.30;99.90
64012;DHT22;50211;52.768;12.124;2023-07-31T14:27:53;19.10;99.90
64012;DHT22;50211;52.768;12.124;2023-07-31T14:30:19;18.70;99.90
64012;DHT22;50211;52.768;12.124;2023-07-31T14:32:45;18.50;99.90
64012;DHT22;50211;52.768;12.124;2023-07-31T14:35:11;18.40;99.90
64012;DHT22;50211;52.768;12.124;2023-07-31T14:37:41;18.20;99.90
64012;DHT22;50211;52.768;12.124;2023-07-31T14:40:08;18.20;99.90
64012;DHT22;50211;52.768;12.124;2023-07-31T14:42:34;18.20;99.90
64012;DHT22;50211;52.768;12.124;2023-07-31T14:45:00;18.20;99.90
64012;DHT22;50211;52.768;12.124;2023-07-31T14:47:26;18.20;99.90
64012;DHT22;50211;52.768;12.124;2023-07-31T14:49:51;18.20;99.90
64012;DHT22;50211;52.768;12.124;2023-07-31T14:52:17;18.20;99.90
64012;DHT22;50211;52.768;12.124;2023-07-31T14:54:42;18.10;99.90
64012;DHT22;50211;52.768;12.124;2023-07-31T14:57:08;18.20;99.90
64012;DHT22;50211;52.768;12.124;2023-07-31T14:59:33;18.20;99.90
64012;DHT22;50211;52.768;12.124;2023-07-31T15:01:59;18.30;99.90
64012;DHT22;50211;52.768;12.124;2023-07-31T15:04:24;18.30;99.90
64012;DHT22;50211;52.768;12.124;2023-07-31T15:06:51;18.40;99.90
64012;DHT22;50211;52.768;12.124;2023-07-31T15:09:17;18.20;99.90
64012;DHT22;50211;52.768;12.124;2023-07-31T15:11:42;18.30;99.90
64012;DHT22;50211;52.768;12.124;2023-07-31T15:14:08;18.20;99.90
64012;DHT22;50211;52.768;12.124;2023-07-31T15:16:33;18.10;99.90